Time;durP1;ratioP1;P1;durP2;ratioP2;P2;SDS_P1;SDS_P2;PMS_P1;PMS_P2;Temp;Humidity;BMP_temperature;BMP_pressure;BME280_temperature;BME280_humidity;BME280_pressure;Samples;Min_cycle;Max_cycle;Signal;HPM_P1;HPM_P2
2020/12/01 00:01:59;;;;;;;173.57;43.17;;;3.30;99.80;;;;;;10527602;28;20040;-67
2020/12/01 00:07:01;;;;;;;93.57;39.45;;;3.40;99.50;;;;;;10523533;28;20497;-68
2020/12/01 00:12:04;;;;;;;88.15;39.42;;;3.30;99.90;;;;;;10533508;28;20048;-67
2020/12/01 00:17:06;;;;;;;50.47;29.77;;;3.20;99.70;;;;;;10541322;28;20044;-67
2020/12/01 00:22:07;;;;;;;96.13;40.45;;;3.20;99.90;;;;;;10542291;28;20048;-67
2020/12/01 00:27:09;;;;;;;69.72;33.97;;;3.30;99.80;;;;;;10541045;28;20051;-67
2020/12/01 00:32:10;;;;;;;68.43;33.53;;;3.20;99.90;;;;;;10541447;28;20048;-67
2020/12/01 00:37:12;;;;;;;68.38;34.10;;;3.20;99.90;;;;;;10540689;28;20450;-68
2020/12/01 00:42:13;;;;;;;95.65;36.28;;;3.30;99.90;;;;;;10540287;28;20044;-67
2020/12/01 00:47:15;;;;;;;51.45;30.73;;;3.30;99.70;;;;;;10540056;28;20052;-67
2020/12/01 00:52:16;;;;;;;88.32;37.42;;;3.30;99.90;;;;;;10539821;28;20086;-67
2020/12/01 00:57:18;;;;;;;73.60;34.55;;;3.30;99.80;;;;;;10540351;28;20135;-67
2020/12/01 01:02:19;;;;;;;89.22;37.28;;;3.30;99.90;;;;;;10539183;28;20083;-67
2020/12/01 01:07:21;;;;;;;95.72;38.00;;;3.20;99.90;;;;;;10540294;28;20079;-68
2020/12/01 01:12:22;;;;;;;71.32;33.70;;;3.00;99.90;;;;;;10539088;28;20090;-68
2020/12/01 01:17:24;;;;;;;103.47;39.42;;;3.10;99.90;;;;;;10538235;28;20071;-68
2020/12/01 01:22:25;;;;;;;53.65;30.95;;;3.20;99.90;;;;;;10538535;28;20134;-68
2020/12/01 01:27:27;;;;;;;151.27;42.75;;;3.30;99.90;;;;;;10539712;28;20090;-68
2020/12/01 01:32:28;;;;;;;172.40;45.95;;;3.30;99.90;;;;;;10537526;28;20090;-68
2020/12/01 01:37:29;;;;;;;90.65;36.00;;;3.40;99.80;;;;;;10539603;28;20289;-67
2020/12/01 01:42:31;;;;;;;107.03;37.25;;;3.40;99.90;;;;;;10537832;28;20059;-67
2020/12/01 01:47:33;;;;;;;74.03;30.50;;;3.40;99.90;;;;;;10539264;28;20381;-67
2020/12/01 01:52:39;;;;;;;109.40;38.28;;;3.30;99.90;;;;;;10536798;28;20071;-68
2020/12/01 01:57:50;;;;;;;77.68;34.70;;;3.40;99.90;;;;;;10496740;28;20051;-67
2020/12/01 02:02:51;;;;;;;227.03;48.00;;;3.40;99.90;;;;;;10523970;28;20048;-67
2020/12/01 02:07:53;;;;;;;169.02;39.70;;;3.30;99.90;;;;;;10538254;28;20556;-67
2020/12/01 02:12:59;;;;;;;131.40;38.00;;;3.30;99.90;;;;;;10537489;28;20048;-68
2020/12/01 02:18:01;;;;;;;68.40;31.52;;;3.40;99.90;;;;;;10537859;28;20079;-68
2020/12/01 02:23:03;;;;;;;679.65;56.63;;;3.50;99.90;;;;;;10536916;28;20242;-68
2020/12/01 02:28:04;;;;;;;473.63;45.20;;;3.50;99.70;;;;;;10537919;28;20048;-67
2020/12/01 02:33:06;;;;;;;472.20;53.65;;;3.50;99.70;;;;;;10537283;28;20053;-67
2020/12/01 02:38:08;;;;;;;50.88;29.85;;;3.40;99.70;;;;;;10537351;28;20044;-67
2020/12/01 02:43:10;;;;;;;87.90;34.03;;;3.40;99.80;;;;;;10537875;28;20098;-68
2020/12/01 02:48:12;;;;;;;47.33;26.08;;;3.50;99.50;;;;;;10537476;28;20082;-67
2020/12/01 02:53:13;;;;;;;57.22;27.33;;;3.60;99.60;;;;;;10535645;28;20550;-67
2020/12/01 02:58:15;;;;;;;76.45;30.42;;;3.50;99.40;;;;;;10536723;28;20044;-67
2020/12/01 03:03:16;;;;;;;39.63;22.25;;;3.40;99.70;;;;;;10536760;28;20407;-67
2020/12/01 03:08:18;;;;;;;51.70;24.17;;;3.40;99.90;;;;;;10535694;28;20347;-67
2020/12/01 03:13:19;;;;;;;48.72;24.35;;;3.40;99.90;;;;;;10536739;28;20080;-68
2020/12/01 03:18:21;;;;;;;67.45;29.20;;;3.40;99.80;;;;;;10536208;28;20122;-67
2020/12/01 03:23:23;;;;;;;44.33;23.13;;;3.50;99.80;;;;;;10536550;28;20076;-67
2020/12/01 03:28:24;;;;;;;34.88;21.42;;;3.50;99.90;;;;;;10536315;28;20131;-67
2020/12/01 03:33:26;;;;;;;43.90;21.80;;;3.50;99.90;;;;;;10535758;28;20083;-67
2020/12/01 03:38:28;;;;;;;37.15;20.80;;;3.60;99.80;;;;;;10536250;28;20040;-68
2020/12/01 03:43:30;;;;;;;47.95;22.77;;;3.60;99.70;;;;;;10535182;28;20079;-67
2020/12/01 03:48:32;;;;;;;31.77;19.88;;;3.60;99.60;;;;;;10535374;28;20130;-67
2020/12/01 03:53:33;;;;;;;35.25;19.63;;;3.60;99.50;;;;;;10534817;28;20581;-67
2020/12/01 03:58:35;;;;;;;31.67;18.45;;;3.70;99.40;;;;;;10535218;28;20044;-67
2020/12/01 04:03:37;;;;;;;31.02;17.90;;;3.70;99.40;;;;;;10533995;28;20496;-67
2020/12/01 04:08:38;;;;;;;28.90;17.45;;;3.70;99.20;;;;;;10535589;28;20105;-67
2020/12/01 04:13:40;;;;;;;24.55;15.80;;;3.70;99.20;;;;;;10533845;28;20044;-67
2020/12/01 04:18:42;;;;;;;33.20;19.20;;;3.60;99.40;;;;;;10535540;28;20052;-67
2020/12/01 04:23:44;;;;;;;28.50;17.40;;;3.70;99.40;;;;;;10533970;28;20056;-67
2020/12/01 04:28:51;;;;;;;34.42;17.98;;;3.70;99.40;;;;;;10535184;28;20052;-67
2020/12/01 04:33:52;;;;;;;31.35;17.45;;;3.70;99.40;;;;;;10534500;28;20488;-67
2020/12/01 04:38:54;;;;;;;24.20;15.27;;;3.70;99.30;;;;;;10535225;28;20052;-67
2020/12/01 04:43:58;;;;;;;31.00;17.58;;;3.80;99.10;;;;;;10534344;28;20095;-67
2020/12/01 04:49:16;;;;;;;29.30;17.27;;;3.80;99.20;;;;;;10534569;28;20098;-67
2020/12/01 04:54:54;;;;;;;34.50;19.23;;;3.80;99.10;;;;;;10534855;28;20436;-67
2020/12/01 05:00:11;;;;;;;34.95;18.75;;;3.80;99.20;;;;;;10540604;28;20048;-67
2020/12/01 05:05:41;;;;;;;31.88;18.10;;;3.80;99.10;;;;;;10540395;28;20079;-68
2020/12/01 05:10:47;;;;;;;32.30;17.98;;;3.80;99.00;;;;;;10541719;28;20071;-67
2020/12/01 05:15:56;;;;;;;28.70;17.48;;;3.80;99.40;;;;;;10541418;28;20044;-67
2020/12/01 05:21:01;;;;;;;34.75;18.77;;;3.90;98.90;;;;;;10540792;28;20052;-67
2020/12/01 05:26:09;;;;;;;36.40;18.90;;;3.90;98.80;;;;;;10540957;28;20075;-67
2020/12/01 05:31:11;;;;;;;32.58;18.60;;;3.80;99.10;;;;;;10540786;28;20083;-67
2020/12/01 05:36:17;;;;;;;33.03;18.48;;;3.90;99.10;;;;;;10540572;28;20450;-68
2020/12/01 05:41:27;;;;;;;39.90;22.48;;;3.90;99.00;;;;;;10540440;28;20055;-67
2020/12/01 05:47:01;;;;;;;38.15;19.33;;;3.90;98.90;;;;;;10540133;28;20127;-67
2020/12/01 05:52:04;;;;;;;34.88;19.58;;;3.90;99.00;;;;;;10508670;28;20085;-68
2020/12/01 05:57:24;;;;;;;39.47;20.73;;;3.90;99.00;;;;;;10539581;28;20044;-67
2020/12/01 06:02:53;;;;;;;41.65;23.52;;;3.90;98.80;;;;;;10522325;28;20044;-67
2020/12/01 06:08:04;;;;;;;42.45;23.00;;;3.90;98.90;;;;;;10537724;28;20044;-67
2020/12/01 06:13:29;;;;;;;32.27;19.57;;;3.90;99.00;;;;;;10538714;28;20060;-67
2020/12/01 06:19:00;;;;;;;40.22;21.70;;;3.80;99.40;;;;;;10539341;28;20333;-68
2020/12/01 06:24:51;;;;;;;36.22;20.52;;;3.80;99.10;;;;;;10538617;28;20056;-67
2020/12/01 06:30:15;;;;;;;36.85;19.13;;;3.80;99.10;;;;;;10500894;28;20051;-68
2020/12/01 06:35:50;;;;;;;35.20;20.50;;;3.80;99.30;;;;;;10538673;28;20083;-67
2020/12/01 06:41:01;;;;;;;38.72;20.75;;;3.70;99.60;;;;;;10535739;28;20071;-68
2020/12/01 06:46:16;;;;;;;33.37;18.63;;;3.70;99.80;;;;;;10531570;28;20044;-68
2020/12/01 06:51:19;;;;;;;34.47;18.65;;;3.80;99.60;;;;;;10530490;28;20135;-67
2020/12/01 06:56:20;;;;;;;33.13;18.92;;;4.00;99.40;;;;;;10533391;28;20107;-67
2020/12/01 07:01:28;;;;;;;32.67;17.65;;;3.90;99.50;;;;;;10532428;28;20412;-67
2020/12/01 07:06:29;;;;;;;33.08;18.52;;;3.90;99.50;;;;;;10533751;28;20472;-67
2020/12/01 07:11:33;;;;;;;39.35;20.02;;;3.90;99.60;;;;;;10533780;28;20075;-68
2020/12/01 07:16:44;;;;;;;37.95;20.13;;;4.00;99.40;;;;;;10533758;28;20091;-68
2020/12/01 07:22:00;;;;;;;34.67;18.98;;;4.00;99.30;;;;;;10531084;28;20135;-68
2020/12/01 07:27:28;;;;;;;39.78;20.90;;;3.90;99.10;;;;;;10546918;28;20101;-68
2020/12/01 07:33:01;;;;;;;43.78;20.80;;;3.90;99.10;;;;;;10531159;28;20075;-68
2020/12/01 07:38:22;;;;;;;77.10;27.88;;;3.70;99.90;;;;;;10531120;28;20048;-68
2020/12/01 07:43:39;;;;;;;51.50;23.73;;;3.70;99.80;;;;;;10530332;28;20381;-68
2020/12/01 07:48:41;;;;;;;30.02;17.75;;;3.70;99.90;;;;;;10531463;28;20056;-67
2020/12/01 07:53:42;;;;;;;34.20;19.85;;;3.80;99.70;;;;;;10533077;28;20062;-68
2020/12/01 07:59:07;;;;;;;66.50;26.05;;;3.90;99.50;;;;;;10532487;28;20048;-68
2020/12/01 08:04:20;;;;;;;40.08;21.40;;;4.00;99.50;;;;;;10525462;28;20048;-67
2020/12/01 08:09:24;;;;;;;46.03;21.52;;;4.00;99.60;;;;;;10531860;28;20079;-67
2020/12/01 08:14:25;;;;;;;52.83;25.92;;;4.10;99.40;;;;;;10529785;28;20056;-67
2020/12/01 08:19:29;;;;;;;50.08;25.80;;;4.20;99.40;;;;;;10527949;28;20048;-68
2020/12/01 08:24:34;;;;;;;59.25;25.48;;;4.20;99.30;;;;;;10528931;28;20083;-68
2020/12/01 08:29:39;;;;;;;146.30;33.80;;;4.30;99.20;;;;;;10525622;28;20044;-68
2020/12/01 08:35:02;;;;;;;64.85;29.50;;;4.40;99.00;;;;;;10534152;28;20052;-68
2020/12/01 08:40:27;;;;;;;47.97;25.75;;;4.50;98.70;;;;;;10535561;28;20108;-67
2020/12/01 08:45:42;;;;;;;54.78;25.63;;;4.50;98.60;;;;;;10533970;28;20080;-68
2020/12/01 08:50:43;;;;;;;43.53;24.60;;;4.60;98.40;;;;;;10540050;28;20056;-69
2020/12/01 08:55:56;;;;;;;64.13;28.02;;;4.80;98.40;;;;;;10540547;28;20052;-69
2020/12/01 09:01:05;;;;;;;41.83;22.35;;;5.00;98.10;;;;;;10539884;28;20105;-70
2020/12/01 09:06:27;;;;;;;37.25;20.77;;;5.10;97.60;;;;;;10539204;28;20456;-70
2020/12/01 09:12:08;;;;;;;35.20;20.40;;;5.00;98.20;;;;;;10541486;28;20184;-70
2020/12/01 09:18:22;;;;;;;43.00;22.75;;;5.20;97.80;;;;;;10503239;28;20488;-70
2020/12/01 09:22:38;;;;;;;34.85;20.05;;;5.20;97.90;;;;;;10536823;28;20056;-70
2020/12/01 09:27:41;;;;;;;39.33;20.85;;;5.40;97.70;;;;;;10538982;28;20099;-69
2020/12/01 09:32:42;;;;;;;37.83;23.35;;;5.50;97.50;;;;;;10540205;28;20086;-70
2020/12/01 09:37:44;;;;;;;50.25;25.27;;;5.60;97.30;;;;;;10540145;28;20185;-70
2020/12/01 09:42:50;;;;;;;33.25;21.08;;;5.50;97.40;;;;;;10526152;28;20048;-70
2020/12/01 09:47:59;;;;;;;59.83;29.38;;;5.50;97.70;;;;;;10532165;28;20551;-70
2020/12/01 10:39:47;;;;;;;39.35;22.23;;;5.80;96.00;;;;;;10533389;28;20454;-71
2020/12/01 10:44:48;;;;;;;44.90;23.63;;;5.70;96.00;;;;;;10531247;28;20045;-71
2020/12/01 10:49:50;;;;;;;43.40;25.80;;;5.50;96.40;;;;;;10529117;28;20052;-70
2020/12/01 10:54:52;;;;;;;41.30;23.67;;;5.50;96.30;;;;;;10523036;28;20080;-70
2020/12/01 10:59:53;;;;;;;39.22;23.42;;;5.40;96.70;;;;;;10532059;28;20052;-70
2020/12/01 11:04:55;;;;;;;67.72;29.00;;;5.40;97.10;;;;;;10532562;28;20051;-71
2020/12/01 11:09:56;;;;;;;43.88;23.23;;;5.30;97.50;;;;;;10533422;28;20131;-70
2020/12/01 11:14:58;;;;;;;55.15;27.50;;;5.40;97.40;;;;;;10529961;28;20075;-70
2020/12/01 11:19:59;;;;;;;50.60;25.80;;;5.40;97.60;;;;;;10530447;28;20464;-70
2020/12/01 11:25:01;;;;;;;46.83;23.77;;;5.30;97.50;;;;;;10517415;28;20512;-70
2020/12/01 11:30:04;;;;;;;64.03;30.15;;;5.30;97.90;;;;;;10520784;28;20079;-70
2020/12/01 11:35:06;;;;;;;63.78;29.83;;;5.40;98.00;;;;;;10531378;28;20039;-71
2020/12/01 11:40:09;;;;;;;50.22;27.75;;;5.50;97.90;;;;;;10529408;28;20555;-71
2020/12/01 11:45:12;;;;;;;59.55;29.17;;;5.30;97.90;;;;;;10529042;28;20048;-71
2020/12/01 11:50:14;;;;;;;61.53;31.30;;;5.40;98.20;;;;;;10524359;28;20105;-70
2020/12/01 11:55:16;;;;;;;64.15;31.15;;;5.40;98.30;;;;;;10526096;28;20084;-70
2020/12/01 12:00:24;;;;;;;49.42;27.13;;;5.40;98.30;;;;;;10525678;28;20127;-70
2020/12/01 12:05:26;;;;;;;66.07;31.27;;;5.40;98.40;;;;;;10531179;28;20046;-71
2020/12/01 12:10:28;;;;;;;40.67;22.70;;;5.50;98.30;;;;;;10537117;28;20459;-70
2020/12/01 12:15:29;;;;;;;45.97;25.90;;;5.50;98.00;;;;;;10539105;28;20040;-70
2020/12/01 12:20:31;;;;;;;37.38;22.45;;;5.70;98.00;;;;;;10536293;28;20399;-71
2020/12/01 12:25:33;;;;;;;46.95;24.85;;;5.70;97.70;;;;;;10539375;28;20040;-70
2020/12/01 12:30:34;;;;;;;43.10;25.40;;;5.70;97.70;;;;;;10521463;28;20047;-70
2020/12/01 12:35:35;;;;;;;49.05;26.50;;;5.60;97.90;;;;;;10519511;28;20098;-70
2020/12/01 12:40:37;;;;;;;47.97;26.20;;;5.60;97.90;;;;;;10528104;28;20131;-70
2020/12/01 12:45:39;;;;;;;50.25;25.55;;;5.50;98.10;;;;;;10531755;28;20119;-70
2020/12/01 12:50:40;;;;;;;43.05;24.40;;;5.50;98.60;;;;;;10520362;28;20056;-70
2020/12/01 12:55:42;;;;;;;60.83;30.15;;;5.40;98.60;;;;;;10531994;28;20492;-71
2020/12/01 13:00:44;;;;;;;45.58;25.90;;;5.60;98.50;;;;;;10530165;28;20135;-70
2020/12/01 13:05:46;;;;;;;52.58;27.30;;;5.70;98.20;;;;;;10528097;28;20497;-70
2020/12/01 13:10:49;;;;;;;48.47;25.48;;;5.70;98.20;;;;;;10532674;28;20491;-70
2020/12/01 13:15:50;;;;;;;53.70;26.17;;;5.80;98.10;;;;;;10534688;28;20174;-70
2020/12/01 13:20:52;;;;;;;69.40;31.33;;;5.70;98.20;;;;;;10533635;28;20127;-70
2020/12/01 13:25:53;;;;;;;60.67;28.48;;;5.60;98.40;;;;;;10534319;28;20047;-70
2020/12/01 13:30:54;;;;;;;65.65;31.27;;;5.70;98.40;;;;;;10532549;28;20132;-70
2020/12/01 13:35:56;;;;;;;52.67;27.48;;;5.60;98.30;;;;;;10535279;28;20391;-70
2020/12/01 13:40:57;;;;;;;55.47;27.58;;;5.60;98.50;;;;;;10533995;28;20135;-70
2020/12/01 13:45:59;;;;;;;80.25;31.27;;;5.50;98.30;;;;;;10534107;28;20253;-70
2020/12/01 13:51:01;;;;;;;68.93;29.80;;;5.60;98.60;;;;;;10533846;28;20051;-70
2020/12/01 13:56:03;;;;;;;60.47;28.13;;;5.60;98.70;;;;;;10530100;28;20507;-70
2020/12/01 14:01:04;;;;;;;81.85;34.70;;;5.70;98.50;;;;;;10529055;28;20047;-70
2020/12/01 14:06:05;;;;;;;88.95;34.15;;;5.70;98.60;;;;;;10526419;28;20044;-70
2020/12/01 14:11:07;;;;;;;110.65;39.20;;;5.60;98.80;;;;;;10530938;28;20055;-70
2020/12/01 14:16:08;;;;;;;121.65;41.55;;;5.60;99.10;;;;;;10526173;28;20048;-70
2020/12/01 14:21:10;;;;;;;169.55;48.67;;;5.60;99.30;;;;;;10528463;28;20048;-70
2020/12/01 14:26:14;;;;;;;174.35;47.90;;;5.50;99.70;;;;;;10529516;28;20115;-69
2020/12/01 14:31:15;;;;;;;128.63;40.38;;;5.50;99.90;;;;;;10527304;28;20076;-70
2020/12/01 14:36:21;;;;;;;249.57;53.00;;;5.50;99.70;;;;;;10531901;28;20052;-70
2020/12/01 14:41:24;;;;;;;220.88;48.78;;;5.50;99.70;;;;;;10527184;28;20395;-69
2020/12/01 14:46:31;;;;;;;260.08;43.05;;;5.40;99.70;;;;;;10529246;28;20044;-70
2020/12/01 14:51:45;;;;;;;101.10;36.97;;;5.40;99.90;;;;;;10528773;28;20113;-69
2020/12/01 14:57:13;;;;;;;188.65;46.80;;;5.30;99.80;;;;;;10531173;28;20097;-70
2020/12/01 15:02:26;;;;;;;299.42;58.85;;;5.20;99.90;;;;;;10532638;28;20476;-70
2020/12/01 15:07:45;;;;;;;446.23;65.88;;;5.10;99.90;;;;;;10525796;28;20040;-70
2020/12/01 15:12:48;;;;;;;142.32;38.30;;;5.10;99.90;;;;;;10529612;28;20050;-70
2020/12/01 15:17:53;;;;;;;128.90;45.40;;;5.30;99.90;;;;;;10529782;28;20051;-70
2020/12/01 15:23:33;;;;;;;163.40;58.55;;;5.30;99.90;;;;;;10522437;28;20040;-69
2020/12/01 15:28:36;;;;;;;430.52;62.15;;;5.30;99.90;;;;;;10531083;28;20067;-70
2020/12/01 15:33:38;;;;;;;211.75;81.90;;;5.30;99.90;;;;;;10518131;28;20075;-70
2020/12/01 15:38:42;;;;;;;173.80;46.05;;;5.20;99.90;;;;;;10529772;28;20127;-70
2020/12/01 15:43:59;;;;;;;179.27;45.78;;;5.30;99.90;;;;;;10518217;28;20075;-70
2020/12/01 15:49:01;;;;;;;320.98;54.78;;;5.10;99.90;;;;;;10524890;28;20105;-70
2020/12/01 15:54:12;;;;;;;202.25;62.08;;;5.10;99.90;;;;;;10527261;28;20082;-70
2020/12/01 15:59:42;;;;;;;206.98;46.33;;;5.10;99.90;;;;;;10530822;28;20097;-70
2020/12/01 16:05:14;;;;;;;300.10;42.15;;;5.10;99.90;;;;;;10523788;28;20529;-70
2020/12/01 16:10:26;;;;;;;493.80;55.90;;;5.10;99.90;;;;;;10526777;28;20052;-70
2020/12/01 16:16:05;;;;;;;401.63;51.53;;;5.20;99.90;;;;;;10528665;28;20052;-70
2020/12/01 16:21:21;;;;;;;436.00;56.13;;;5.20;99.90;;;;;;10528317;28;20083;-70
2020/12/01 16:26:35;;;;;;;591.42;66.20;;;5.10;99.90;;;;;;10527886;28;20036;-70
2020/12/01 16:31:39;;;;;;;534.42;51.95;;;5.00;99.90;;;;;;10527619;28;20064;-68
2020/12/01 16:36:59;;;;;;;449.80;46.90;;;5.00;99.90;;;;;;10522481;28;20492;-67
2020/12/01 16:42:09;;;;;;;364.67;53.88;;;5.10;99.90;;;;;;10523491;28;20101;-67
2020/12/01 16:47:45;;;;;;;338.88;49.80;;;5.10;99.90;;;;;;10521688;28;20119;-67
2020/12/01 16:52:46;;;;;;;214.68;44.28;;;5.00;99.90;;;;;;10527601;28;20570;-67
2020/12/01 16:58:02;;;;;;;205.77;43.55;;;5.00;99.90;;;;;;10537400;28;20113;-67
2020/12/01 17:03:12;;;;;;;540.20;57.67;;;5.00;99.90;;;;;;10537970;28;20036;-67
2020/12/01 17:08:14;;;;;;;261.90;47.17;;;5.00;99.90;;;;;;10537544;28;20101;-67
2020/12/01 17:13:22;;;;;;;176.65;39.70;;;5.00;99.90;;;;;;10539637;28;20047;-67
2020/12/01 17:18:25;;;;;;;211.82;43.15;;;5.00;99.90;;;;;;10538614;28;20056;-67
2020/12/01 17:23:26;;;;;;;154.80;38.83;;;5.00;99.90;;;;;;10538651;28;20479;-67
2020/12/01 17:28:34;;;;;;;197.75;41.70;;;5.00;99.90;;;;;;10538702;28;20044;-67
2020/12/01 17:33:44;;;;;;;148.93;39.15;;;5.20;99.90;;;;;;10535957;28;20048;-67
2020/12/01 17:39:07;;;;;;;234.57;44.73;;;5.20;99.90;;;;;;10537786;28;20131;-67
2020/12/01 17:44:25;;;;;;;211.13;42.40;;;5.10;99.90;;;;;;10534530;28;20302;-67
2020/12/01 17:49:32;;;;;;;154.80;38.17;;;5.00;99.90;;;;;;10538103;28;20123;-67
2020/12/01 17:54:34;;;;;;;155.85;39.95;;;5.00;99.90;;;;;;10535333;28;20079;-67
2020/12/01 17:59:36;;;;;;;151.95;38.65;;;5.00;99.90;;;;;;10537305;28;20093;-67
2020/12/01 18:04:38;;;;;;;104.57;34.30;;;4.90;99.90;;;;;;10538831;28;20303;-67
2020/12/01 18:09:40;;;;;;;79.15;31.00;;;5.00;99.90;;;;;;10529427;28;20048;-67
2020/12/01 18:15:13;;;;;;;104.10;32.65;;;5.10;99.90;;;;;;10520739;28;20075;-67
2020/12/01 18:20:31;;;;;;;91.40;30.23;;;5.00;99.90;;;;;;10528430;28;20126;-66
2020/12/01 18:26:10;;;;;;;78.03;29.95;;;4.90;99.90;;;;;;10531405;28;20040;-67
2020/12/01 18:31:23;;;;;;;77.30;29.52;;;4.90;99.90;;;;;;10509311;28;20523;-67
2020/12/01 18:36:25;;;;;;;90.38;30.90;;;4.80;99.90;;;;;;10535477;28;20048;-67
2020/12/01 18:41:30;;;;;;;104.68;31.77;;;4.80;99.90;;;;;;10537352;28;20075;-66
2020/12/01 18:46:34;;;;;;;136.00;35.58;;;4.80;99.90;;;;;;10537254;28;20063;-67
2020/12/01 18:51:36;;;;;;;75.35;28.80;;;4.80;99.90;;;;;;10535080;28;20056;-66
2020/12/01 18:56:38;;;;;;;69.25;27.65;;;4.80;99.90;;;;;;10537091;28;20172;-67
2020/12/01 19:01:40;;;;;;;93.55;31.15;;;4.80;99.90;;;;;;10536612;28;20044;-67
2020/12/01 19:06:42;;;;;;;119.43;33.28;;;4.80;99.90;;;;;;10533828;28;20101;-67
2020/12/01 19:11:44;;;;;;;95.47;29.90;;;4.80;99.90;;;;;;10534668;28;20056;-67
2020/12/01 19:16:54;;;;;;;92.70;31.02;;;4.80;99.90;;;;;;10533593;28;20050;-67
2020/12/01 19:21:56;;;;;;;111.33;32.00;;;4.90;99.90;;;;;;10534421;28;20048;-67
2020/12/01 19:26:59;;;;;;;73.70;29.67;;;4.80;99.90;;;;;;10533705;28;20119;-67
2020/12/01 19:32:01;;;;;;;87.28;29.77;;;4.80;99.90;;;;;;10533431;28;20556;-67
2020/12/01 19:37:03;;;;;;;56.17;26.73;;;4.70;99.90;;;;;;10532618;28;20558;-67
2020/12/01 19:42:04;;;;;;;63.80;28.27;;;4.70;99.90;;;;;;10530841;28;20103;-67
2020/12/01 19:47:06;;;;;;;77.25;29.73;;;4.60;99.90;;;;;;10532702;28;20040;-66
2020/12/01 19:52:08;;;;;;;69.25;29.48;;;4.50;99.90;;;;;;10533038;28;20059;-67
2020/12/01 19:57:10;;;;;;;75.63;30.83;;;4.50;99.90;;;;;;10531553;28;20040;-67
2020/12/01 20:02:13;;;;;;;64.68;29.17;;;4.60;99.90;;;;;;10532646;28;20052;-67
2020/12/01 20:07:15;;;;;;;66.60;28.90;;;4.70;99.90;;;;;;10535044;28;20047;-67
2020/12/01 20:12:16;;;;;;;51.22;26.98;;;4.70;99.90;;;;;;10534898;28;20084;-67
2020/12/01 20:17:20;;;;;;;54.53;26.35;;;4.80;99.90;;;;;;10534654;28;20047;-67
2020/12/01 20:22:21;;;;;;;72.82;29.15;;;4.90;99.90;;;;;;10535333;28;20132;-66
2020/12/01 20:27:25;;;;;;;63.22;29.05;;;4.90;99.90;;;;;;10537395;28;20048;-66
2020/12/01 20:32:27;;;;;;;51.80;26.33;;;4.80;99.90;;;;;;10538864;28;20080;-67
2020/12/01 20:37:55;;;;;;;44.22;24.42;;;4.80;99.90;;;;;;10540513;28;20120;-67
2020/12/01 20:42:57;;;;;;;47.17;25.63;;;4.90;99.90;;;;;;10538733;28;20036;-67
2020/12/01 20:47:59;;;;;;;53.40;26.48;;;4.80;99.90;;;;;;10540318;27;20048;-67
2020/12/01 20:53:00;;;;;;;43.75;24.60;;;4.80;99.90;;;;;;10539637;28;20412;-66
2020/12/01 20:58:07;;;;;;;48.85;26.48;;;4.70;99.90;;;;;;10539574;28;20470;-67
2020/12/01 21:03:11;;;;;;;48.70;25.70;;;4.70;99.90;;;;;;10536726;28;20048;-67
2020/12/01 21:08:16;;;;;;;47.58;26.58;;;4.70;99.90;;;;;;10541270;28;20071;-66
2020/12/01 21:13:29;;;;;;;50.13;27.48;;;4.70;99.90;;;;;;10540896;28;20575;-67
2020/12/01 21:18:31;;;;;;;57.67;27.52;;;4.80;99.90;;;;;;10540988;28;20488;-67
2020/12/01 21:23:37;;;;;;;54.03;27.35;;;4.70;99.90;;;;;;10539411;28;20044;-67
2020/12/01 21:28:43;;;;;;;51.03;27.02;;;4.80;99.90;;;;;;10540087;28;20095;-66
2020/12/01 21:33:54;;;;;;;44.47;25.45;;;4.80;99.90;;;;;;10539620;28;20488;-67
2020/12/01 21:39:04;;;;;;;70.07;30.33;;;4.80;99.90;;;;;;10537133;28;20048;-67
2020/12/01 21:44:15;;;;;;;65.85;29.85;;;4.80;99.90;;;;;;10539737;28;20773;-67
2020/12/01 21:49:21;;;;;;;42.83;25.85;;;4.80;99.90;;;;;;10539564;28;20052;-67
2020/12/01 21:54:35;;;;;;;51.17;26.77;;;4.80;99.90;;;;;;10538762;28;20435;-67
2020/12/01 22:00:03;;;;;;;50.17;27.30;;;4.70;99.90;;;;;;10537377;28;20075;-67
2020/12/01 22:05:16;;;;;;;44.38;25.90;;;4.60;99.90;;;;;;10538964;28;20223;-66
2020/12/01 22:10:33;;;;;;;45.28;25.45;;;4.50;99.90;;;;;;10538266;28;20487;-67
2020/12/01 22:15:44;;;;;;;43.15;25.58;;;4.50;99.90;;;;;;10537809;28;20059;-66
2020/12/01 22:21:00;;;;;;;43.17;25.35;;;4.40;99.90;;;;;;10539107;28;20177;-66
2020/12/01 22:26:08;;;;;;;43.90;26.05;;;4.40;99.90;;;;;;10538941;28;20036;-66
2020/12/01 22:31:32;;;;;;;42.83;25.55;;;4.50;99.90;;;;;;10538237;28;20543;-66
2020/12/01 22:36:35;;;;;;;41.88;25.42;;;4.50;99.90;;;;;;10538834;28;20052;-66
2020/12/01 22:42:08;;;;;;;45.45;26.23;;;4.50;99.90;;;;;;10538060;28;20105;-67
2020/12/01 22:47:15;;;;;;;;;;;4.60;99.90;;;;;;10538369;28;20051;-67
2020/12/01 22:52:25;;;;;;;49.08;26.45;;;4.70;99.90;;;;;;10536570;28;19965;-66
2020/12/01 22:57:48;;;;;;;49.60;26.67;;;4.60;99.90;;;;;;10536940;28;20479;-66
2020/12/01 23:02:50;;;;;;;43.20;25.52;;;4.70;99.90;;;;;;10537351;28;20123;-66
2020/12/01 23:08:03;;;;;;;41.15;24.80;;;4.70;99.80;;;;;;10535858;28;20078;-67
2020/12/01 23:13:10;;;;;;;44.17;25.45;;;4.70;99.90;;;;;;10536353;28;20484;-67
2020/12/01 23:18:12;;;;;;;43.05;25.27;;;4.60;99.90;;;;;;10536929;28;20052;-67
2020/12/01 23:23:18;;;;;;;52.72;26.65;;;4.50;99.90;;;;;;10537147;28;20048;-66
2020/12/01 23:28:20;;;;;;;49.53;26.75;;;4.40;99.90;;;;;;10535985;28;20047;-66
2020/12/01 23:33:25;;;;;;;51.63;27.63;;;4.60;99.90;;;;;;10536446;28;20052;-67
2020/12/01 23:38:30;;;;;;;43.05;25.48;;;4.70;99.90;;;;;;10536275;28;20044;-66
2020/12/01 23:44:00;;;;;;;47.22;25.48;;;4.70;99.90;;;;;;10535255;28;20087;-66
2020/12/01 23:49:07;;;;;;;40.75;23.83;;;4.60;99.90;;;;;;10535682;28;20055;-66
2020/12/01 23:54:08;;;;;;;37.55;22.80;;;4.60;99.90;;;;;;10535927;28;20039;-67
2020/12/01 23:59:10;;;;;;;38.85;23.75;;;4.70;99.90;;;;;;10534957;28;20046;-67
